createdAt,value
2019-02-25T00:01:30.738Z,67.73
2019-02-25T00:03:57.745Z,113.30
2019-02-25T00:06:24.568Z,74.83
2019-02-25T00:08:51.916Z,75.80
2019-02-25T00:11:19.272Z,81.27
2019-02-25T00:13:46.523Z,69.67
2019-02-25T00:16:13.315Z,79.27
2019-02-25T00:18:41.012Z,73.53
2019-02-25T00:21:08.545Z,78.77
2019-02-25T00:23:35.536Z,64.77
2019-02-25T00:26:02.380Z,82.47
2019-02-25T00:28:29.097Z,63.60
2019-02-25T00:30:56.263Z,80.17
2019-02-25T00:33:23.937Z,83.70
2019-02-25T00:35:52.001Z,78.30
2019-02-25T00:38:18.727Z,103.57
2019-02-25T00:40:45.705Z,89.60
2019-02-25T00:43:13.752Z,93.50
2019-02-25T00:45:41.418Z,70.80
2019-02-25T00:48:09.432Z,81.67
2019-02-25T00:50:37.304Z,75.80
2019-02-25T00:53:04.551Z,69.00
2019-02-25T00:55:31.945Z,72.60
2019-02-25T00:57:59.309Z,69.40
2019-02-25T01:00:26.568Z,79.13
2019-02-25T01:02:54.259Z,86.53
2019-02-25T01:05:21.766Z,74.60
2019-02-25T01:07:49.532Z,70.40
2019-02-25T01:10:16.682Z,89.30
2019-02-25T01:12:44.752Z,87.93
2019-02-25T01:15:12.001Z,75.60
2019-02-25T01:17:38.749Z,79.30
2019-02-25T01:20:05.484Z,70.83
2019-02-25T01:22:32.221Z,86.43
2019-02-25T01:24:59.351Z,81.53
2019-02-25T01:27:26.114Z,96.33
2019-02-25T01:29:52.864Z,67.77
2019-02-25T01:32:19.586Z,72.60
2019-02-25T01:34:46.595Z,70.30
2019-02-25T01:37:13.539Z,67.07
2019-02-25T01:39:40.330Z,80.37
2019-02-25T01:42:07.206Z,110.37
2019-02-25T01:44:33.908Z,88.03
2019-02-25T01:47:00.750Z,88.90
2019-02-25T01:49:27.589Z,92.87
2019-02-25T01:51:54.439Z,95.77
2019-02-25T01:54:21.130Z,99.60
2019-02-25T01:56:47.920Z,103.00
2019-02-25T01:59:14.647Z,90.43
2019-02-25T02:01:41.498Z,89.03
2019-02-25T02:04:08.321Z,78.13
2019-02-25T02:06:34.970Z,105.80
2019-02-25T02:09:01.699Z,101.20
2019-02-25T02:11:28.437Z,73.20
2019-02-25T02:13:55.263Z,81.10
2019-02-25T02:16:22.038Z,77.43
2019-02-25T02:18:48.929Z,102.47
2019-02-25T02:21:15.715Z,83.77
2019-02-25T02:23:42.561Z,77.47
2019-02-25T02:26:09.450Z,77.67
2019-02-25T02:28:36.247Z,72.60
2019-02-25T02:31:02.969Z,66.47
2019-02-25T02:33:29.680Z,80.83
2019-02-25T02:35:56.458Z,69.90
2019-02-25T02:38:23.298Z,86.57
2019-02-25T02:40:50.035Z,80.50
2019-02-25T02:43:16.881Z,71.30
2019-02-25T02:45:43.721Z,90.20
2019-02-25T02:48:10.427Z,76.33
2019-02-25T02:50:37.192Z,75.80
2019-02-25T02:53:04.052Z,69.83
2019-02-25T02:55:30.891Z,70.33
2019-02-25T02:57:57.784Z,60.47
2019-02-25T03:00:24.543Z,76.50
2019-02-25T03:02:51.409Z,78.57
2019-02-25T03:05:18.249Z,75.70
2019-02-25T03:07:44.981Z,73.93
2019-02-25T03:10:11.689Z,78.20
2019-02-25T03:12:38.470Z,72.60
2019-02-25T03:15:05.301Z,62.20
2019-02-25T03:17:32.041Z,82.40
2019-02-25T03:19:58.747Z,74.00
2019-02-25T03:22:25.517Z,66.90
2019-02-25T03:24:52.266Z,79.63
2019-02-25T03:27:19.096Z,97.77
2019-02-25T03:29:45.951Z,68.17
2019-02-25T03:32:12.682Z,102.80
2019-02-25T03:34:39.423Z,77.83
2019-02-25T03:37:06.157Z,77.30
2019-02-25T03:39:33.009Z,83.73
2019-02-25T03:41:59.705Z,87.53
2019-02-25T03:44:26.491Z,71.90
2019-02-25T03:46:53.354Z,105.77
2019-02-25T03:49:20.059Z,83.43
2019-02-25T03:51:46.807Z,90.30
2019-02-25T03:54:13.542Z,82.97
2019-02-25T03:56:40.390Z,83.97
2019-02-25T03:59:07.125Z,75.63
2019-02-25T04:01:33.854Z,86.70
2019-02-25T04:04:00.702Z,82.90
2019-02-25T04:06:27.449Z,70.70
2019-02-25T04:08:54.189Z,82.50
2019-02-25T04:11:20.881Z,78.50
2019-02-25T04:13:47.550Z,80.50
2019-02-25T04:16:14.509Z,107.23
2019-02-25T04:18:41.351Z,73.47
2019-02-25T04:21:08.269Z,80.33
2019-02-25T04:23:35.040Z,91.30
2019-02-25T04:26:01.791Z,93.07
2019-02-25T04:28:28.608Z,62.23
2019-02-25T04:30:55.464Z,89.17
2019-02-25T04:33:22.160Z,79.67
2019-02-25T04:35:48.927Z,72.47
2019-02-25T04:38:15.670Z,90.67
2019-02-25T04:40:42.516Z,64.33
2019-02-25T04:43:09.242Z,62.37
2019-02-25T04:45:36.002Z,69.73
2019-02-25T04:48:02.724Z,73.70
2019-02-25T04:50:29.481Z,65.63
2019-02-25T04:52:56.311Z,71.63
2019-02-25T04:55:23.055Z,60.83
2019-02-25T04:57:49.795Z,61.43
2019-02-25T05:00:16.638Z,69.43
2019-02-25T05:02:43.491Z,78.17
2019-02-25T05:05:10.320Z,81.97
2019-02-25T05:07:37.165Z,86.20
2019-02-25T05:10:03.999Z,68.37
2019-02-25T05:12:30.851Z,69.47
2019-02-25T05:14:57.572Z,60.83
2019-02-25T05:17:24.393Z,73.20
2019-02-25T05:19:51.157Z,57.00
2019-02-25T05:22:17.999Z,56.27
2019-02-25T05:24:44.743Z,67.97
2019-02-25T05:27:11.472Z,52.87
2019-02-25T05:29:38.287Z,67.53
2019-02-25T05:32:05.075Z,67.30
2019-02-25T05:34:31.906Z,76.07
2019-02-25T05:36:58.751Z,58.93
2019-02-25T05:39:25.592Z,73.90
2019-02-25T05:41:52.428Z,82.03
2019-02-25T05:44:19.159Z,65.13
2019-02-25T05:46:45.808Z,60.13
2019-02-25T05:49:12.533Z,56.27
2019-02-25T05:51:39.276Z,69.40
2019-02-25T05:54:06.035Z,62.23
2019-02-25T05:56:32.879Z,68.70
2019-02-25T05:58:59.717Z,98.87
2019-02-25T06:01:26.548Z,72.20
2019-02-25T06:03:53.448Z,64.03
2019-02-25T06:06:20.335Z,73.43
2019-02-25T06:08:47.175Z,65.70
2019-02-25T06:11:13.919Z,70.37
2019-02-25T06:13:40.649Z,69.57
2019-02-25T06:16:07.350Z,85.30
2019-02-25T06:18:34.241Z,64.43
2019-02-25T06:21:00.990Z,79.37
2019-02-25T06:23:27.713Z,87.60
2019-02-25T06:25:54.555Z,67.03
2019-02-25T06:28:21.283Z,81.33
2019-02-25T06:30:48.037Z,71.53
2019-02-25T06:33:14.875Z,70.13
2019-02-25T06:35:41.614Z,77.23
2019-02-25T06:38:08.390Z,71.53
2019-02-25T06:40:35.196Z,69.87
2019-02-25T06:43:02.047Z,66.00
2019-02-25T06:45:30.879Z,69.93
2019-02-25T06:47:57.221Z,65.90
2019-02-25T06:50:24.195Z,81.87
2019-02-25T06:52:50.940Z,75.27
2019-02-25T06:55:17.701Z,64.83
2019-02-25T06:57:44.532Z,73.03
2019-02-25T07:00:11.567Z,61.60
2019-02-25T07:02:38.417Z,71.97
2019-02-25T07:05:05.250Z,69.63
2019-02-25T07:07:32.401Z,67.27
2019-02-25T07:09:59.232Z,61.70
2019-02-25T07:12:25.934Z,78.47
2019-02-25T07:14:52.624Z,79.80
2019-02-25T07:17:19.476Z,90.93
2019-02-25T07:19:46.306Z,105.13
2019-02-25T07:22:13.141Z,80.13
2019-02-25T07:24:40.027Z,62.33
2019-02-25T07:27:06.827Z,80.27
2019-02-25T07:29:33.668Z,64.07
2019-02-25T07:32:00.714Z,73.80
2019-02-25T07:34:27.450Z,81.63
2019-02-25T07:36:54.387Z,120.67
2019-02-25T07:39:21.130Z,96.67
2019-02-25T07:41:48.079Z,86.87
2019-02-25T07:44:14.923Z,91.50
2019-02-25T07:46:41.670Z,85.97
2019-02-25T07:49:08.404Z,66.13
2019-02-25T07:51:35.140Z,57.47
2019-02-25T07:54:01.876Z,58.57
2019-02-25T07:56:28.615Z,62.23
2019-02-25T07:58:55.352Z,73.17
2019-02-25T08:01:22.096Z,70.23
2019-02-25T08:03:49.041Z,76.57
2019-02-25T08:06:15.820Z,89.73
2019-02-25T08:08:42.622Z,77.80
2019-02-25T08:11:09.370Z,62.73
2019-02-25T08:13:36.221Z,60.70
2019-02-25T08:16:02.908Z,56.17
2019-02-25T08:18:29.675Z,68.23
2019-02-25T08:20:56.425Z,62.40
2019-02-25T08:23:23.267Z,67.33
2019-02-25T08:25:51.980Z,86.93
2019-02-25T08:28:18.687Z,76.03
2019-02-25T08:30:45.646Z,67.23
2019-02-25T08:33:12.370Z,102.33
2019-02-25T08:35:39.216Z,67.97
2019-02-25T08:38:05.946Z,89.90
2019-02-25T08:40:32.801Z,55.67
2019-02-25T08:42:59.645Z,62.33
2019-02-25T08:45:26.482Z,69.60
2019-02-25T08:47:53.408Z,66.03
2019-02-25T08:50:20.086Z,65.07
2019-02-25T08:52:46.955Z,67.57
2019-02-25T08:55:13.730Z,68.67
2019-02-25T08:57:40.457Z,64.67
2019-02-25T09:00:07.251Z,54.23
2019-02-25T09:02:33.948Z,60.87
2019-02-25T09:05:00.613Z,70.10
2019-02-25T09:07:27.445Z,58.83
2019-02-25T09:09:54.283Z,59.20
2019-02-25T09:12:21.010Z,69.97
2019-02-25T09:14:47.766Z,53.73
2019-02-25T09:17:16.074Z,58.93
2019-02-25T09:19:42.967Z,71.07
2019-02-25T09:22:09.810Z,63.67
2019-02-25T09:24:36.554Z,63.50
2019-02-25T09:27:03.285Z,56.07
2019-02-25T09:29:30.037Z,78.33
2019-02-25T09:31:56.764Z,63.17
2019-02-25T09:34:23.617Z,66.87
2019-02-25T09:36:50.458Z,50.50
2019-02-25T09:39:17.193Z,62.40
2019-02-25T09:41:43.890Z,68.53
2019-02-25T09:44:10.685Z,58.80
2019-02-25T09:46:37.745Z,71.17
2019-02-25T09:49:04.570Z,57.67
2019-02-25T09:51:31.437Z,55.77
2019-02-25T09:53:58.248Z,65.43
2019-02-25T09:56:25.090Z,57.70
2019-02-25T09:58:52.069Z,57.67
2019-02-25T10:01:19.080Z,63.20
2019-02-25T10:03:45.810Z,55.23
2019-02-25T10:06:13.041Z,54.37
2019-02-25T10:08:40.618Z,50.47
2019-02-25T10:11:08.191Z,51.18
2019-02-25T10:13:34.932Z,51.35
2019-02-25T10:16:03.064Z,49.05
2019-02-25T10:18:30.162Z,44.93
2019-02-25T10:20:57.046Z,42.27
2019-02-25T10:23:23.820Z,52.15
2019-02-25T10:25:50.560Z,55.80
2019-02-25T10:28:17.408Z,51.60
2019-02-25T10:30:52.536Z,45.08
2019-02-25T10:33:12.470Z,43.65
2019-02-25T10:35:39.330Z,43.95
2019-02-25T10:38:06.107Z,37.33
2019-02-25T10:40:32.835Z,44.05
2019-02-25T10:42:59.589Z,39.70
2019-02-25T10:45:26.325Z,38.67
2019-02-25T10:47:58.332Z,36.63
2019-02-25T10:50:21.533Z,35.80
2019-02-25T10:52:49.480Z,33.23
2019-02-25T10:55:16.549Z,37.50
2019-02-25T10:57:43.309Z,35.23
2019-02-25T11:00:11.644Z,34.10
2019-02-25T11:02:44.252Z,36.63
2019-02-25T11:05:07.191Z,43.78
2019-02-25T11:07:34.907Z,48.10
2019-02-25T11:10:02.719Z,41.75
2019-02-25T11:12:30.430Z,44.05
2019-02-25T11:14:58.254Z,46.92
2019-02-25T11:17:24.994Z,50.60
2019-02-25T11:19:51.723Z,60.65
2019-02-25T11:22:18.463Z,59.10
2019-02-25T11:24:46.832Z,48.13
2019-02-25T11:27:13.785Z,46.13
2019-02-25T11:29:42.139Z,46.60
2019-02-25T11:32:08.940Z,52.93
2019-02-25T11:34:37.585Z,48.80
2019-02-25T11:37:04.178Z,53.52
2019-02-25T11:39:32.699Z,46.35
2019-02-25T11:41:59.444Z,51.30
2019-02-25T11:44:30.918Z,65.97
2019-02-25T11:46:54.673Z,48.95
2019-02-25T11:49:21.435Z,49.70
2019-02-25T11:51:48.256Z,60.28
2019-02-25T11:54:14.983Z,47.27
2019-02-25T11:56:41.725Z,55.80
2019-02-25T11:59:08.512Z,48.00
2019-02-25T12:01:35.413Z,46.20
2019-02-25T12:04:02.144Z,43.58
2019-02-25T12:06:28.913Z,69.80
2019-02-25T12:08:55.729Z,46.75
2019-02-25T12:11:22.461Z,51.45
2019-02-25T12:13:49.214Z,63.48
2019-02-25T12:16:15.942Z,51.98
2019-02-25T12:18:42.708Z,48.40
2019-02-25T12:21:09.453Z,60.03
2019-02-25T12:23:36.279Z,38.15
2019-02-25T12:26:03.124Z,60.80
2019-02-25T12:28:29.961Z,60.60
2019-02-25T12:30:56.811Z,45.33
2019-02-25T12:33:23.547Z,61.05
2019-02-25T12:35:50.380Z,61.18
2019-02-25T12:38:17.215Z,65.37
2019-02-25T12:40:43.932Z,52.83
2019-02-25T12:43:10.753Z,67.50
2019-02-25T12:45:37.536Z,44.88
2019-02-25T12:48:04.416Z,46.55
2019-02-25T12:50:31.232Z,61.43
2019-02-25T12:52:58.072Z,61.53
2019-02-25T12:55:24.812Z,68.73
2019-02-25T12:57:51.643Z,85.87
2019-02-25T13:00:18.489Z,73.50
2019-02-25T13:02:45.336Z,71.80
2019-02-25T13:05:12.084Z,67.97
2019-02-25T13:07:38.903Z,56.97
2019-02-25T13:10:05.654Z,60.43
2019-02-25T13:12:32.501Z,90.40
2019-02-25T13:14:59.372Z,68.37
2019-02-25T13:17:26.179Z,81.73
2019-02-25T13:19:53.028Z,79.43
2019-02-25T13:22:19.753Z,82.80
2019-02-25T13:24:46.599Z,57.37
2019-02-25T13:27:13.870Z,85.80
2019-02-25T13:29:40.741Z,55.57
2019-02-25T13:32:07.543Z,69.17
2019-02-25T13:34:34.375Z,83.17
2019-02-25T13:37:01.317Z,59.33
2019-02-25T13:39:28.078Z,72.37
2019-02-25T13:41:55.093Z,62.57
2019-02-25T13:44:21.803Z,67.93
2019-02-25T13:46:48.584Z,59.50
2019-02-25T13:49:15.531Z,53.30
2019-02-25T13:51:42.477Z,58.83
2019-02-25T13:54:09.506Z,59.03
2019-02-25T13:56:36.470Z,52.67
2019-02-25T13:59:03.617Z,44.37
2019-02-25T14:01:30.657Z,52.90
2019-02-25T14:03:58.101Z,45.20
2019-02-25T14:06:24.931Z,46.50
2019-02-25T14:08:51.686Z,50.78
2019-02-25T14:11:18.590Z,51.88
2019-02-25T14:13:45.385Z,48.92
2019-02-25T14:16:12.829Z,45.80
2019-02-25T14:18:39.575Z,50.65
2019-02-25T14:21:06.571Z,48.60
2019-02-25T14:23:33.364Z,58.83
2019-02-25T14:26:00.194Z,73.47
2019-02-25T14:28:27.050Z,53.90
2019-02-25T14:30:54.178Z,62.17
2019-02-25T14:33:23.421Z,69.83
2019-02-25T14:35:50.346Z,88.80
2019-02-25T14:38:20.215Z,67.93
2019-02-25T14:40:47.136Z,62.60
2019-02-25T14:43:15.672Z,66.37
2019-02-25T14:45:46.173Z,68.80
2019-02-25T14:48:15.432Z,89.40
2019-02-25T14:50:40.126Z,57.17
2019-02-25T14:53:09.180Z,58.30
2019-02-25T14:55:35.609Z,57.63
2019-02-25T14:58:04.797Z,57.50
2019-02-25T15:00:32.704Z,58.30
2019-02-25T15:02:59.808Z,58.10
2019-02-25T15:05:26.654Z,59.20
2019-02-25T15:07:53.531Z,59.10
2019-02-25T15:10:20.309Z,56.60
2019-02-25T15:12:47.114Z,63.90
2019-02-25T15:15:14.086Z,68.40
2019-02-25T15:17:42.015Z,64.47
2019-02-25T15:20:10.487Z,69.90
2019-02-25T15:22:38.379Z,65.60
2019-02-25T15:25:06.115Z,77.67
2019-02-25T15:27:33.141Z,71.83
2019-02-25T15:29:59.892Z,68.17
2019-02-25T15:32:26.726Z,76.30
2019-02-25T15:34:55.101Z,76.73
2019-02-25T15:37:21.951Z,82.47
2019-02-25T15:39:48.688Z,63.87
2019-02-25T15:42:15.699Z,83.37
2019-02-25T15:44:44.517Z,84.40
2019-02-25T15:47:12.887Z,70.80
2019-02-25T15:49:39.438Z,59.43
2019-02-25T15:52:06.133Z,61.63
2019-02-25T15:54:34.902Z,70.53
2019-02-25T15:57:01.488Z,78.40
2019-02-25T15:59:32.088Z,72.00
2019-02-25T16:01:56.581Z,71.23
2019-02-25T16:04:25.550Z,67.17
2019-02-25T16:06:53.840Z,69.63
2019-02-25T16:09:23.768Z,75.53
2019-02-25T16:11:48.681Z,78.57
2019-02-25T16:14:15.761Z,72.97
2019-02-25T16:16:42.573Z,75.00
2019-02-25T16:19:09.430Z,62.87
2019-02-25T16:21:40.666Z,71.30
2019-02-25T16:24:07.674Z,70.47
2019-02-25T16:26:34.280Z,65.80
2019-02-25T16:29:05.964Z,65.53
2019-02-25T16:31:30.974Z,70.00
2019-02-25T16:33:58.458Z,81.97
2019-02-25T16:36:26.201Z,83.83
2019-02-25T16:38:55.716Z,83.43
2019-02-25T16:41:27.382Z,82.20
2019-02-25T16:43:52.125Z,75.67
2019-02-25T16:46:20.362Z,85.70
2019-02-25T16:48:48.491Z,89.20
2019-02-25T16:51:15.669Z,80.60
2019-02-25T16:53:43.295Z,67.67
2019-02-25T16:56:11.913Z,71.63
2019-02-25T16:58:39.380Z,61.97
2019-02-25T17:01:07.990Z,67.43
2019-02-25T17:03:35.376Z,68.33
2019-02-25T17:06:05.057Z,59.50
2019-02-25T17:08:32.478Z,63.80
2019-02-25T17:11:00.074Z,64.30
2019-02-25T17:13:27.078Z,65.37
2019-02-25T17:15:55.591Z,66.57
2019-02-25T17:18:22.398Z,68.67
2019-02-25T17:20:50.291Z,67.93
2019-02-25T17:23:17.213Z,80.80
2019-02-25T17:25:44.250Z,98.53
2019-02-25T17:28:14.638Z,94.67
2019-02-25T17:30:41.149Z,83.77
2019-02-25T17:33:09.740Z,74.17
2019-02-25T17:35:36.216Z,74.97
2019-02-25T17:38:03.638Z,77.03
2019-02-25T17:40:31.352Z,83.60
2019-02-25T17:42:58.400Z,83.17
2019-02-25T17:45:27.463Z,74.97
2019-02-25T17:47:58.305Z,77.77
2019-02-25T17:50:21.838Z,100.83
2019-02-25T17:52:48.661Z,69.77
2019-02-25T17:55:15.459Z,79.07
2019-02-25T17:57:42.317Z,98.40
2019-02-25T18:00:11.098Z,77.23
2019-02-25T18:02:38.585Z,67.30
2019-02-25T18:05:06.319Z,71.00
2019-02-25T18:07:33.263Z,86.70
2019-02-25T18:10:01.126Z,78.50
2019-02-25T18:12:29.742Z,74.43
2019-02-25T18:14:58.846Z,76.67
2019-02-25T18:17:25.374Z,80.90
2019-02-25T18:19:52.937Z,98.57
2019-02-25T18:22:20.551Z,94.30
2019-02-25T18:24:47.600Z,85.77
2019-02-25T18:27:14.616Z,131.53
2019-02-25T18:29:43.800Z,97.70
2019-02-25T18:32:10.572Z,87.97
2019-02-25T18:34:38.668Z,93.57
2019-02-25T18:37:07.049Z,104.53
2019-02-25T18:39:33.717Z,93.73
2019-02-25T18:42:00.715Z,95.07
2019-02-25T18:44:27.866Z,106.10
2019-02-25T18:46:54.704Z,118.60
2019-02-25T18:49:21.402Z,127.77
2019-02-25T18:51:48.189Z,128.63
2019-02-25T18:54:16.944Z,155.93
2019-02-25T18:56:44.694Z,152.27
2019-02-25T18:59:14.997Z,140.73
2019-02-25T19:01:40.167Z,138.47
2019-02-25T19:04:06.893Z,108.37
2019-02-25T19:06:33.799Z,135.37
2019-02-25T19:09:00.441Z,125.97
2019-02-25T19:11:28.261Z,126.27
2019-02-25T19:13:56.626Z,130.77
2019-02-25T19:16:24.375Z,124.47
2019-02-25T19:18:51.221Z,119.03
2019-02-25T19:21:18.073Z,152.60
2019-02-25T19:23:46.442Z,141.43
2019-02-25T19:26:15.348Z,144.40
2019-02-25T19:28:44.090Z,141.93
2019-02-25T19:31:10.263Z,149.87
2019-02-25T19:33:37.234Z,127.27
2019-02-25T19:36:04.834Z,120.23
2019-02-25T19:38:36.032Z,149.73
2019-02-25T19:41:00.888Z,132.93
2019-02-25T19:43:27.644Z,127.70
2019-02-25T19:45:54.360Z,133.23
2019-02-25T19:48:22.618Z,126.43
2019-02-25T19:50:51.370Z,128.57
2019-02-25T19:53:20.282Z,118.80
2019-02-25T19:55:48.648Z,139.47
2019-02-25T19:58:14.715Z,112.97
2019-02-25T20:00:41.570Z,130.53
2019-02-25T20:03:08.521Z,134.20
2019-02-25T20:05:38.848Z,136.93
2019-02-25T20:08:03.831Z,106.03
2019-02-25T20:10:30.835Z,118.50
2019-02-25T20:12:57.631Z,122.03
2019-02-25T20:15:25.206Z,130.27
2019-02-25T20:17:53.303Z,121.37
2019-02-25T20:20:20.634Z,129.10
2019-02-25T20:22:47.438Z,124.57
2019-02-25T20:25:16.462Z,121.37
2019-02-25T20:27:42.663Z,127.37
2019-02-25T20:30:09.397Z,120.03
2019-02-25T20:32:36.967Z,116.03
2019-02-25T20:35:04.460Z,117.37
2019-02-25T20:37:31.424Z,109.20
2019-02-25T20:40:00.632Z,99.70
2019-02-25T20:42:28.548Z,116.67
2019-02-25T20:44:57.562Z,99.83
2019-02-25T20:47:24.355Z,107.43
2019-02-25T20:49:53.683Z,117.40
2019-02-25T20:52:20.244Z,121.83
2019-02-25T20:54:49.585Z,104.07
2019-02-25T20:57:16.937Z,111.83
2019-02-25T20:59:46.626Z,126.37
2019-02-25T21:02:16.127Z,120.97
2019-02-25T21:04:43.906Z,130.17
2019-02-25T21:07:11.481Z,118.57
2019-02-25T21:09:40.382Z,148.80
2019-02-25T21:12:08.164Z,109.43
2019-02-25T21:14:37.884Z,117.80
2019-02-25T21:17:04.262Z,117.30
2019-02-25T21:19:31.011Z,135.87
2019-02-25T21:21:59.633Z,139.17
2019-02-25T21:24:26.924Z,118.63
2019-02-25T21:26:57.436Z,113.13
2019-02-25T21:29:26.904Z,125.00
2019-02-25T21:31:54.167Z,141.23
2019-02-25T21:34:23.801Z,109.77
2019-02-25T21:36:49.562Z,118.33
2019-02-25T21:39:19.018Z,130.27
2019-02-25T21:41:46.053Z,106.50
2019-02-25T21:44:16.645Z,129.57
2019-02-25T21:46:43.796Z,111.13
2019-02-25T21:49:12.745Z,118.30
2019-02-25T21:51:43.658Z,108.73
2019-02-25T21:54:10.348Z,110.83
2019-02-25T21:56:37.323Z,111.17
2019-02-25T21:59:06.070Z,107.70
2019-02-25T22:01:34.412Z,108.97
2019-02-25T22:04:01.133Z,109.73
2019-02-25T22:06:29.567Z,108.03
2019-02-25T22:08:58.552Z,100.80
2019-02-25T22:11:25.538Z,106.60
2019-02-25T22:13:52.347Z,86.60
2019-02-25T22:16:19.193Z,103.93
2019-02-25T22:18:47.737Z,113.07
2019-02-25T22:21:16.592Z,99.70
2019-02-25T22:23:42.797Z,99.07
2019-02-25T22:26:09.531Z,108.37
2019-02-25T22:28:37.628Z,102.10
2019-02-25T22:31:07.906Z,108.67
2019-02-25T22:33:33.231Z,104.03
2019-02-25T22:36:00.389Z,102.63
2019-02-25T22:38:27.227Z,107.97
2019-02-25T22:40:55.932Z,103.20
2019-02-25T22:43:22.744Z,105.90
2019-02-25T22:45:49.583Z,111.20
2019-02-25T22:48:18.604Z,125.83
2019-02-25T22:50:44.906Z,105.43
2019-02-25T22:53:11.810Z,115.47
2019-02-25T22:55:41.795Z,106.77
2019-02-25T22:58:08.842Z,89.73
2019-02-25T23:00:35.643Z,86.87
2019-02-25T23:03:02.383Z,89.13
2019-02-25T23:05:29.087Z,92.80
2019-02-25T23:07:55.876Z,97.93
2019-02-25T23:10:24.170Z,108.20
2019-02-25T23:12:51.289Z,90.10
2019-02-25T23:15:18.657Z,91.17
2019-02-25T23:17:46.524Z,85.27
2019-02-25T23:20:13.353Z,103.77
2019-02-25T23:22:40.193Z,101.97
2019-02-25T23:25:07.039Z,85.50
2019-02-25T23:27:34.498Z,94.03
2019-02-25T23:30:02.143Z,90.63
2019-02-25T23:32:28.994Z,99.87
2019-02-25T23:34:55.751Z,97.47
2019-02-25T23:37:24.160Z,97.87
2019-02-25T23:39:51.059Z,90.37
2019-02-25T23:42:18.107Z,106.73
2019-02-25T23:44:45.004Z,96.00
2019-02-25T23:47:11.689Z,101.77
2019-02-25T23:49:39.061Z,119.33
2019-02-25T23:52:07.014Z,92.50
2019-02-25T23:54:33.747Z,91.33
2019-02-25T23:57:02.024Z,90.37
2019-02-25T23:59:28.819Z,84.97
